Time;durP1;ratioP1;P1;durP2;ratioP2;P2;SDS_P1;SDS_P2;PMS_P1;PMS_P2;Temp;Humidity;BMP_temperature;BMP_pressure;BME280_temperature;BME280_humidity;BME280_pressure;Samples;Min_cycle;Max_cycle;Signal;HPM_P1;HPM_P2
2021/07/12 00:01:51;;;;;;;2.53;2.25;;;20.20;99.90;;;;;;4132029;28;20043;-72
2021/07/12 00:03:51;;;;;;;3.10;1.98;;;20.20;99.90;;;;;;4140164;28;20034;-72
2021/07/12 00:05:53;;;;;;;3.03;2.20;;;20.30;99.90;;;;;;4135692;28;20138;-72
2021/07/12 00:07:54;;;;;;;3.60;2.28;;;20.20;99.90;;;;;;4134749;28;20045;-72
2021/07/12 00:09:55;;;;;;;2.47;2.25;;;20.20;99.90;;;;;;4132790;28;20038;-73
2021/07/12 00:11:55;;;;;;;2.72;2.38;;;20.20;99.90;;;;;;4134851;28;20034;-72
2021/07/12 00:13:56;;;;;;;2.10;2.00;;;20.20;99.90;;;;;;4133371;28;20486;-72
2021/07/12 00:15:57;;;;;;;2.38;2.17;;;20.20;99.90;;;;;;4131511;28;20046;-72
2021/07/12 00:17:58;;;;;;;2.55;2.10;;;20.20;99.90;;;;;;4135479;28;20030;-72
2021/07/12 00:19:59;;;;;;;2.20;1.88;;;20.20;99.90;;;;;;4136947;28;20034;-72
2021/07/12 00:22:00;;;;;;;4.60;2.40;;;20.10;99.90;;;;;;4136222;28;20069;-72
2021/07/12 00:24:00;;;;;;;2.83;2.60;;;20.10;99.90;;;;;;4138613;28;20057;-72
2021/07/12 00:26:03;;;;;;;2.97;2.15;;;20.10;99.90;;;;;;4137684;28;20065;-72
2021/07/12 00:28:04;;;;;;;;;;;20.10;99.90;;;;;;4134116;28;20053;-72
2021/07/12 00:30:07;;;;;;;3.90;2.40;;;20.00;99.90;;;;;;4134228;28;19952;-72
2021/07/12 00:32:08;;;;;;;4.90;2.53;;;20.00;99.90;;;;;;4132002;28;20456;-72
2021/07/12 00:34:09;;;;;;;2.63;2.30;;;20.00;99.90;;;;;;4133224;28;20104;-72
2021/07/12 00:36:09;;;;;;;2.88;2.53;;;20.00;99.90;;;;;;4138759;28;20075;-72
2021/07/12 00:38:10;;;;;;;2.75;2.40;;;19.90;99.90;;;;;;4140454;28;20069;-72
2021/07/12 00:40:13;;;;;;;2.58;2.30;;;19.90;99.90;;;;;;4136966;28;20117;-72
2021/07/12 00:42:14;;;;;;;2.97;2.67;;;19.90;99.90;;;;;;4120780;28;20086;-72
2021/07/12 00:44:14;;;;;;;3.70;2.35;;;19.90;99.90;;;;;;4133705;28;20046;-72
2021/07/12 00:46:15;;;;;;;2.15;1.95;;;19.90;99.90;;;;;;4137656;28;20049;-72
2021/07/12 00:48:16;;;;;;;3.38;2.50;;;19.90;99.90;;;;;;4138306;28;20099;-72
2021/07/12 00:50:18;;;;;;;3.47;2.42;;;19.90;99.90;;;;;;4132064;28;20048;-72
2021/07/12 00:52:19;;;;;;;3.13;2.60;;;19.90;99.90;;;;;;4141106;28;20437;-72
2021/07/12 00:54:26;;;;;;;3.15;2.60;;;19.80;99.90;;;;;;4140989;28;20030;-72
2021/07/12 00:56:27;;;;;;;4.72;2.40;;;19.80;99.90;;;;;;4151554;28;20041;-73
2021/07/12 00:58:28;;;;;;;3.30;2.65;;;19.80;99.90;;;;;;4136541;28;20125;-72
2021/07/12 01:00:28;;;;;;;4.25;2.30;;;19.80;99.90;;;;;;4137671;28;20645;-72
2021/07/12 01:02:30;;;;;;;2.60;2.35;;;19.70;99.90;;;;;;4142160;28;20118;-72
2021/07/12 01:04:33;;;;;;;2.90;2.42;;;19.70;99.90;;;;;;4139033;28;21493;-72
2021/07/12 01:06:33;;;;;;;2.80;2.30;;;19.70;99.90;;;;;;4143059;28;20386;-72
2021/07/12 01:08:34;;;;;;;2.65;2.33;;;19.70;99.90;;;;;;4139621;28;20040;-72
2021/07/12 01:10:35;;;;;;;2.40;2.20;;;19.70;99.90;;;;;;4136526;28;20034;-72
2021/07/12 01:12:59;;;;;;;2.65;2.40;;;19.70;99.90;;;;;;4136859;28;20046;-72
2021/07/12 01:15:13;;;;;;;2.25;2.05;;;19.60;99.90;;;;;;4136972;28;20030;-72
2021/07/12 01:17:23;;;;;;;3.80;2.65;;;19.60;99.90;;;;;;4137613;28;20037;-72
2021/07/12 01:20:06;;;;;;;5.20;2.55;;;19.50;99.90;;;;;;4118691;28;20621;-72
2021/07/12 01:22:39;;;;;;;3.30;2.40;;;19.50;99.90;;;;;;4129815;28;20565;-72
2021/07/12 01:25:19;;;;;;;4.80;2.35;;;19.50;99.90;;;;;;4156039;28;20029;-72
2021/07/12 01:27:38;;;;;;;6.47;2.97;;;19.50;99.90;;;;;;4116410;28;20106;-72
2021/07/12 01:30:02;;;;;;;3.35;2.70;;;19.40;99.90;;;;;;4135490;28;20054;-72
2021/07/12 01:32:31;;;;;;;5.82;2.70;;;19.50;99.90;;;;;;4141914;28;20441;-72
2021/07/12 01:34:50;;;;;;;5.40;2.83;;;19.50;99.90;;;;;;4135979;28;20049;-72
2021/07/12 01:37:17;;;;;;;4.13;2.90;;;19.40;99.90;;;;;;4137788;28;20058;-72
2021/07/12 01:39:30;;;;;;;3.75;2.75;;;19.40;99.90;;;;;;4135184;28;20033;-72
2021/07/12 01:41:45;;;;;;;3.83;3.13;;;19.40;99.90;;;;;;4137619;28;20651;-73
2021/07/12 01:43:51;;;;;;;2.75;2.55;;;19.40;99.90;;;;;;4134974;28;20437;-72
2021/07/12 01:46:08;;;;;;;4.10;3.00;;;19.40;99.90;;;;;;4130459;28;20442;-72
2021/07/12 01:48:15;;;;;;;3.50;2.95;;;19.30;99.90;;;;;;4137564;28;20030;-72
2021/07/12 01:50:37;;;;;;;4.18;2.65;;;19.30;99.90;;;;;;4135637;28;20128;-72
2021/07/12 01:53:11;;;;;;;4.68;2.50;;;19.40;99.90;;;;;;4134532;28;20042;-72
2021/07/12 01:55:21;;;;;;;2.65;2.45;;;19.40;99.90;;;;;;4131120;28;20049;-72
2021/07/12 01:57:26;;;;;;;7.20;3.00;;;19.40;99.90;;;;;;4137335;28;20042;-72
2021/07/12 01:59:33;;;;;;;2.78;2.50;;;19.30;99.90;;;;;;4136245;28;20038;-72
2021/07/12 02:01:36;;;;;;;2.35;2.13;;;19.30;99.90;;;;;;4140904;28;20038;-72
2021/07/12 02:03:37;;;;;;;2.75;2.47;;;19.30;99.90;;;;;;4136699;28;20097;-72
2021/07/12 02:05:40;;;;;;;5.97;2.35;;;19.30;99.90;;;;;;4136100;28;20390;-72
2021/07/12 02:07:42;;;;;;;5.13;2.67;;;19.30;99.90;;;;;;4137949;28;20049;-72
2021/07/12 02:09:45;;;;;;;;;;;19.30;99.90;;;;;;4137882;28;20169;-72
2021/07/12 02:11:47;;;;;;;3.08;2.60;;;19.30;99.90;;;;;;4137284;28;20420;-72
2021/07/12 02:13:49;;;;;;;3.00;2.65;;;19.20;99.90;;;;;;4141635;28;20045;-72
2021/07/12 02:15:55;;;;;;;6.90;3.25;;;19.30;99.90;;;;;;4137657;28;20049;-72
2021/07/12 02:17:56;;;;;;;3.83;2.90;;;19.20;99.90;;;;;;4137555;28;20030;-72
2021/07/12 02:19:59;;;;;;;4.15;2.78;;;19.20;99.90;;;;;;4138395;28;20038;-72
2021/07/12 02:22:00;;;;;;;;;;;19.20;99.90;;;;;;4135366;28;20087;-72
2021/07/12 02:24:02;;;;;;;3.30;2.30;;;19.20;99.90;;;;;;4135301;28;19920;-72
2021/07/12 02:26:03;;;;;;;3.28;2.40;;;19.20;99.90;;;;;;4130987;28;20115;-72
2021/07/12 02:28:05;;;;;;;5.32;2.97;;;19.20;99.90;;;;;;4133140;28;20050;-72
2021/07/12 02:30:07;;;;;;;4.93;2.53;;;19.10;99.90;;;;;;4136152;28;20093;-72
2021/07/12 02:32:08;;;;;;;2.35;2.10;;;19.10;99.90;;;;;;4134833;28;20037;-72
2021/07/12 02:34:10;;;;;;;5.95;2.40;;;19.10;99.90;;;;;;4135383;28;20109;-72
2021/07/12 02:36:12;;;;;;;7.27;2.97;;;19.10;99.90;;;;;;4137836;28;20079;-72
2021/07/12 02:38:13;;;;;;;3.47;2.50;;;19.10;99.90;;;;;;4131571;28;20056;-72
2021/07/12 02:40:16;;;;;;;5.53;2.30;;;19.10;99.90;;;;;;4132574;28;20042;-72
2021/07/12 02:42:17;;;;;;;3.08;2.25;;;19.10;99.90;;;;;;4137291;28;20375;-72
2021/07/12 02:44:18;;;;;;;2.80;2.28;;;19.10;99.90;;;;;;4139005;28;20050;-72
2021/07/12 02:46:21;;;;;;;3.30;2.08;;;19.10;99.90;;;;;;4137751;28;20046;-72
2021/07/12 02:48:21;;;;;;;2.28;2.00;;;19.10;99.90;;;;;;4133096;28;20042;-72
2021/07/12 02:50:24;;;;;;;3.15;2.22;;;19.10;99.90;;;;;;4136263;28;20037;-72
2021/07/12 02:52:26;;;;;;;;;;;19.00;99.90;;;;;;4137293;28;20382;-72
2021/07/12 02:54:35;;;;;;;2.60;2.22;;;19.00;99.90;;;;;;4154921;28;19929;-72
2021/07/12 02:56:36;;;;;;;2.35;2.15;;;19.00;99.90;;;;;;4140492;28;20441;-72
2021/07/12 02:58:37;;;;;;;2.95;2.22;;;19.00;99.90;;;;;;4139317;28;20038;-71
2021/07/12 03:00:38;;;;;;;2.78;2.00;;;19.00;99.90;;;;;;4134944;28;20050;-72
2021/07/12 03:02:39;;;;;;;4.18;2.47;;;19.00;99.90;;;;;;4134432;28;20486;-72
2021/07/12 03:04:40;;;;;;;2.85;2.15;;;19.00;99.90;;;;;;4140301;28;20369;-72
2021/07/12 03:06:46;;;;;;;2.58;2.10;;;19.00;99.90;;;;;;4140046;28;20120;-72
2021/07/12 03:09:05;;;;;;;9.07;2.70;;;18.90;99.90;;;;;;4139592;28;20080;-72
2021/07/12 03:11:08;;;;;;;2.72;2.20;;;18.90;99.90;;;;;;4137367;28;20470;-72
2021/07/12 03:13:14;;;;;;;2.47;2.28;;;18.90;99.90;;;;;;4137920;28;20061;-72
2021/07/12 03:15:17;;;;;;;5.15;2.78;;;18.90;99.90;;;;;;4137297;28;20135;-72
2021/07/12 03:17:19;;;;;;;2.58;2.30;;;18.90;99.90;;;;;;4134778;28;20049;-72
2021/07/12 03:19:25;;;;;;;2.58;2.25;;;18.80;99.90;;;;;;4134249;28;20203;-72
2021/07/12 03:21:27;;;;;;;4.13;2.28;;;18.90;99.90;;;;;;4139783;28;20096;-72
2021/07/12 03:23:30;;;;;;;4.68;2.22;;;18.90;99.90;;;;;;4133405;28;21574;-72
2021/07/12 03:25:34;;;;;;;4.35;2.38;;;18.90;99.90;;;;;;4131560;28;20034;-72
2021/07/12 03:27:36;;;;;;;4.05;3.20;;;18.90;99.90;;;;;;4136319;28;20117;-72
2021/07/12 03:29:39;;;;;;;5.55;2.90;;;18.90;99.90;;;;;;4137259;28;20087;-72
2021/07/12 03:31:41;;;;;;;5.70;2.70;;;18.90;99.90;;;;;;4133186;28;20034;-72
2021/07/12 03:33:43;;;;;;;2.88;2.38;;;18.80;99.90;;;;;;4140827;28;20034;-72
2021/07/12 03:35:45;;;;;;;3.30;2.45;;;18.80;99.90;;;;;;4133808;28;20069;-72
2021/07/12 03:37:46;;;;;;;5.15;2.63;;;18.80;99.90;;;;;;4129559;28;20126;-72
2021/07/12 03:39:48;;;;;;;11.98;2.83;;;18.80;99.90;;;;;;4134803;28;20668;-72
2021/07/12 03:41:50;;;;;;;3.78;2.67;;;18.80;99.90;;;;;;4139870;28;20038;-72
2021/07/12 03:43:51;;;;;;;5.88;2.95;;;18.70;99.90;;;;;;4132587;28;20042;-72
2021/07/12 03:45:58;;;;;;;5.40;2.70;;;18.70;99.90;;;;;;4132788;28;20058;-72
2021/07/12 03:47:58;;;;;;;6.20;2.53;;;18.70;99.90;;;;;;4132378;28;20081;-72
2021/07/12 03:50:11;;;;;;;6.97;2.80;;;18.70;99.90;;;;;;4132078;28;20034;-72
2021/07/12 03:52:12;;;;;;;6.10;2.50;;;18.70;99.90;;;;;;4130442;28;20042;-72
2021/07/12 03:54:13;;;;;;;5.05;2.90;;;18.70;99.90;;;;;;4133917;28;20490;-72
2021/07/12 03:56:14;;;;;;;4.75;3.03;;;18.70;99.90;;;;;;4137249;28;20076;-72
2021/07/12 03:58:14;;;;;;;5.78;2.90;;;18.70;99.90;;;;;;4139056;28;20038;-72
2021/07/12 04:00:17;;;;;;;3.88;2.75;;;18.70;99.90;;;;;;4133609;28;20475;-72
2021/07/12 04:02:18;;;;;;;7.63;2.75;;;18.70;99.90;;;;;;4135819;28;20064;-72
2021/07/12 04:04:18;;;;;;;6.22;2.65;;;18.70;99.90;;;;;;4131366;28;20046;-72
2021/07/12 04:06:19;;;;;;;2.20;1.98;;;18.70;99.90;;;;;;4134374;28;20039;-72
2021/07/12 04:08:20;;;;;;;5.80;2.08;;;18.70;99.90;;;;;;4135591;28;20034;-72
2021/07/12 04:10:21;;;;;;;5.55;2.50;;;18.70;99.90;;;;;;4139181;28;20061;-72
2021/07/12 04:12:23;;;;;;;3.75;2.05;;;18.70;99.90;;;;;;4136625;28;20038;-72
2021/07/12 04:14:24;;;;;;;3.87;2.23;;;18.70;99.90;;;;;;4138194;28;20680;-72
2021/07/12 04:16:24;;;;;;;5.28;2.47;;;18.70;99.90;;;;;;4124370;28;20046;-72
2021/07/12 04:18:25;;;;;;;5.38;2.97;;;18.70;99.90;;;;;;4139160;28;20481;-72
2021/07/12 04:20:26;;;;;;;5.15;2.83;;;18.70;99.90;;;;;;4139389;28;20042;-72
2021/07/12 04:22:27;;;;;;;5.53;2.72;;;18.70;99.90;;;;;;4137235;28;20034;-72
2021/07/12 04:24:27;;;;;;;6.80;2.92;;;18.70;99.90;;;;;;4139188;28;20072;-72
2021/07/12 04:26:28;;;;;;;7.70;3.17;;;18.70;99.90;;;;;;4140190;28;20266;-72
2021/07/12 04:28:28;;;;;;;3.35;3.05;;;18.70;99.90;;;;;;4138216;28;20045;-72
2021/07/12 04:30:29;;;;;;;5.32;3.10;;;18.70;99.90;;;;;;4140001;28;20080;-72
2021/07/12 04:32:30;;;;;;;6.88;3.00;;;18.70;99.90;;;;;;4135884;28;20053;-72
2021/07/12 04:34:30;;;;;;;4.00;2.90;;;18.70;99.90;;;;;;4135924;28;20656;-72
2021/07/12 04:36:31;;;;;;;3.83;2.78;;;18.70;99.90;;;;;;4141199;28;20042;-72
2021/07/12 04:38:32;;;;;;;5.18;3.17;;;18.70;99.90;;;;;;4137756;28;20091;-72
2021/07/12 04:40:32;;;;;;;3.88;2.72;;;18.70;99.90;;;;;;4138313;28;20057;-72
2021/07/12 04:42:33;;;;;;;3.70;2.90;;;18.70;99.90;;;;;;4138285;28;20050;-72
2021/07/12 04:44:33;;;;;;;4.50;3.35;;;18.70;99.90;;;;;;4141895;28;20569;-72
2021/07/12 04:46:35;;;;;;;5.68;3.30;;;18.70;99.90;;;;;;4136074;28;20041;-72
2021/07/12 04:48:36;;;;;;;4.10;3.20;;;18.80;99.90;;;;;;4140669;28;20045;-72
2021/07/12 04:50:36;;;;;;;6.22;3.28;;;18.80;99.90;;;;;;4139068;28;20565;-72
2021/07/12 04:52:37;;;;;;;7.53;3.47;;;18.80;99.90;;;;;;4133745;28;20041;-72
2021/07/12 04:54:38;;;;;;;6.55;2.92;;;18.80;99.90;;;;;;4136000;28;20026;-72
2021/07/12 04:56:38;;;;;;;6.22;3.70;;;18.80;99.90;;;;;;4132790;28;20126;-72
2021/07/12 04:58:44;;;;;;;10.48;4.22;;;18.90;99.90;;;;;;4136335;28;20042;-72
2021/07/12 05:00:44;;;;;;;8.90;3.45;;;18.80;99.90;;;;;;4137830;28;20030;-72
2021/07/12 05:02:45;;;;;;;4.50;3.03;;;18.90;99.90;;;;;;4141871;28;20034;-72
2021/07/12 05:04:46;;;;;;;4.22;3.50;;;18.90;99.90;;;;;;4132894;28;21328;-72
2021/07/12 05:06:46;;;;;;;8.95;3.67;;;18.90;99.90;;;;;;4136882;28;20034;-72
2021/07/12 05:08:47;;;;;;;8.73;3.40;;;19.00;99.90;;;;;;4132350;28;20057;-72
2021/07/12 05:10:47;;;;;;;12.50;4.28;;;19.00;99.90;;;;;;4132100;28;20089;-72
2021/07/12 05:12:48;;;;;;;8.27;4.85;;;19.00;99.90;;;;;;4128828;28;20490;-72
2021/07/12 05:14:49;;;;;;;11.10;6.35;;;19.00;99.90;;;;;;4136722;28;20061;-72
2021/07/12 05:16:53;;;;;;;8.70;6.43;;;19.00;99.90;;;;;;4138532;28;20046;-72
2021/07/12 05:18:55;;;;;;;8.48;6.57;;;19.00;99.90;;;;;;4135159;28;20038;-72
2021/07/12 05:20:56;;;;;;;8.68;7.30;;;19.10;99.90;;;;;;4136208;28;20057;-72
2021/07/12 05:22:57;;;;;;;8.30;6.57;;;19.10;99.90;;;;;;4127462;28;20651;-72
2021/07/12 05:24:58;;;;;;;8.77;6.95;;;19.10;99.90;;;;;;4135625;28;20022;-72
2021/07/12 05:26:59;;;;;;;11.30;8.20;;;19.10;99.90;;;;;;4134411;28;20553;-72
2021/07/12 05:28:59;;;;;;;11.70;7.22;;;19.10;99.90;;;;;;4134788;28;20046;-72
2021/07/12 05:31:00;;;;;;;8.70;6.93;;;19.20;99.90;;;;;;4143972;28;20029;-72
2021/07/12 05:33:02;;;;;;;9.45;7.30;;;19.20;99.90;;;;;;4137472;28;20125;-72
2021/07/12 05:35:04;;;;;;;9.93;7.20;;;19.30;99.90;;;;;;4135659;28;20069;-72
2021/07/12 05:37:05;;;;;;;10.43;8.15;;;19.30;99.90;;;;;;4114427;28;20120;-72
2021/07/12 05:39:06;;;;;;;13.38;9.55;;;19.20;99.90;;;;;;4140496;28;20042;-72
2021/07/12 05:41:07;;;;;;;10.15;8.32;;;19.30;99.90;;;;;;4133922;28;20034;-72
2021/07/12 05:43:08;;;;;;;10.18;8.38;;;19.20;99.90;;;;;;4129155;28;20531;-72
2021/07/12 05:45:09;;;;;;;12.38;9.48;;;19.20;99.90;;;;;;4132824;28;20121;-72
2021/07/12 05:47:10;;;;;;;12.38;8.75;;;19.20;99.90;;;;;;4132489;28;20041;-72
2021/07/12 05:49:11;;;;;;;14.75;9.38;;;19.30;99.90;;;;;;4136007;28;20506;-72
2021/07/12 05:51:11;;;;;;;14.18;10.18;;;19.30;99.90;;;;;;4126829;28;20120;-72
2021/07/12 05:53:14;;;;;;;11.07;8.98;;;19.30;99.90;;;;;;4140696;28;20091;-72
2021/07/12 05:55:15;;;;;;;;;;;19.30;99.90;;;;;;4133688;28;20084;-72
2021/07/12 05:57:15;;;;;;;11.05;9.60;;;19.40;99.90;;;;;;4139639;28;19921;-74
2021/07/12 05:59:16;;;;;;;11.65;9.57;;;19.40;99.90;;;;;;4145522;28;20042;-71
2021/07/12 06:01:16;;;;;;;14.50;9.82;;;19.40;99.90;;;;;;4142181;28;20046;-71
2021/07/12 06:03:18;;;;;;;14.75;9.55;;;19.50;99.90;;;;;;4139547;28;20065;-72
2021/07/12 06:05:19;;;;;;;13.40;10.70;;;19.50;99.90;;;;;;4137822;28;20053;-72
2021/07/12 06:07:19;;;;;;;16.33;11.90;;;19.60;99.90;;;;;;4137789;28;20034;-72
2021/07/12 06:09:20;;;;;;;12.65;9.43;;;19.60;99.90;;;;;;4136260;28;20569;-72
2021/07/12 06:11:20;;;;;;;13.25;10.18;;;19.70;99.90;;;;;;4136259;28;20046;-72
2021/07/12 06:13:21;;;;;;;12.55;9.88;;;19.70;99.90;;;;;;4130831;28;20046;-72
2021/07/12 06:15:22;;;;;;;12.18;8.93;;;19.80;99.90;;;;;;4138306;28;20034;-72
2021/07/12 06:17:22;;;;;;;11.32;8.32;;;19.90;99.90;;;;;;4140023;28;20041;-72
2021/07/12 06:19:23;;;;;;;14.10;9.13;;;20.00;99.90;;;;;;4138765;28;20382;-72
2021/07/12 06:21:24;;;;;;;11.73;9.30;;;20.10;99.90;;;;;;4134115;28;20031;-72
2021/07/12 06:23:25;;;;;;;12.68;9.95;;;20.20;99.90;;;;;;4121194;28;20563;-72
2021/07/12 06:25:25;;;;;;;13.68;9.18;;;20.30;99.90;;;;;;4135182;28;20054;-72
2021/07/12 06:27:26;;;;;;;11.77;8.57;;;20.30;99.90;;;;;;4133104;28;20041;-72
2021/07/12 06:29:26;;;;;;;11.05;8.30;;;20.40;99.90;;;;;;4136029;28;20114;-72
2021/07/12 06:31:27;;;;;;;10.45;7.95;;;20.50;99.90;;;;;;4137362;28;20381;-72
2021/07/12 06:33:29;;;;;;;11.75;9.50;;;20.50;99.90;;;;;;4129285;28;20112;-72
2021/07/12 06:35:29;;;;;;;10.68;8.68;;;20.50;99.90;;;;;;4120306;28;20606;-72
2021/07/12 06:37:30;;;;;;;12.40;9.68;;;20.50;99.90;;;;;;4148650;28;20129;-72
2021/07/12 06:39:31;;;;;;;10.70;8.38;;;20.40;99.90;;;;;;4137383;28;20026;-72
2021/07/12 06:41:32;;;;;;;13.57;9.10;;;20.50;99.90;;;;;;4133022;28;20092;-72
2021/07/12 06:43:32;;;;;;;12.85;9.45;;;20.50;99.90;;;;;;4139018;28;20038;-73
2021/07/12 06:45:33;;;;;;;9.98;7.82;;;20.60;99.90;;;;;;4137519;28;20536;-72
2021/07/12 06:47:34;;;;;;;8.70;7.10;;;20.60;99.90;;;;;;4136994;28;20305;-72
2021/07/12 06:49:34;;;;;;;9.07;7.07;;;20.70;99.90;;;;;;4138851;28;20121;-73
2021/07/12 06:51:35;;;;;;;10.73;8.60;;;20.80;99.90;;;;;;4117677;28;20082;-72
2021/07/12 06:53:36;;;;;;;10.10;7.50;;;20.80;99.90;;;;;;4132818;28;20033;-73
2021/07/12 06:55:36;;;;;;;10.77;8.23;;;20.90;99.90;;;;;;4140039;28;20096;-72
2021/07/12 06:57:37;;;;;;;11.23;7.80;;;20.90;99.90;;;;;;4138744;28;20069;-72
2021/07/12 06:59:37;;;;;;;9.55;7.40;;;21.00;99.90;;;;;;4137080;28;20042;-72
2021/07/12 07:01:38;;;;;;;12.10;7.47;;;21.00;99.90;;;;;;4134707;28;20034;-72
2021/07/12 07:03:39;;;;;;;8.95;7.20;;;21.00;99.90;;;;;;4136546;28;20133;-72
2021/07/12 07:05:40;;;;;;;10.23;7.75;;;21.10;99.90;;;;;;4137523;28;20374;-72
2021/07/12 07:07:41;;;;;;;9.15;7.13;;;21.20;99.90;;;;;;4135994;28;20038;-73
2021/07/12 07:09:42;;;;;;;10.95;7.75;;;21.20;99.90;;;;;;4128259;28;20064;-72
2021/07/12 07:11:43;;;;;;;13.35;9.13;;;21.20;99.90;;;;;;4136283;28;20128;-72
2021/07/12 07:13:44;;;;;;;13.63;8.90;;;21.20;99.90;;;;;;4135754;28;20038;-72
2021/07/12 07:15:45;;;;;;;10.23;7.93;;;21.20;99.90;;;;;;4133740;28;20117;-73
2021/07/12 07:17:46;;;;;;;13.25;9.43;;;21.20;99.90;;;;;;4130374;28;20048;-72
2021/07/12 07:19:46;;;;;;;12.85;8.55;;;21.20;99.90;;;;;;4137942;28;20033;-72
2021/07/12 07:21:51;;;;;;;10.70;8.50;;;21.20;99.90;;;;;;4137165;28;20536;-72
2021/07/12 07:23:52;;;;;;;10.95;8.52;;;21.20;99.90;;;;;;4139106;28;20521;-72
2021/07/12 07:25:53;;;;;;;10.10;7.60;;;21.20;99.90;;;;;;4135945;28;20064;-73
2021/07/12 07:27:54;;;;;;;11.70;7.70;;;21.30;99.90;;;;;;4136425;28;20034;-73
2021/07/12 07:29:55;;;;;;;13.27;7.75;;;21.30;99.90;;;;;;4135490;28;20042;-72
2021/07/12 07:31:55;;;;;;;11.38;7.43;;;21.30;99.90;;;;;;4135067;28;20448;-73
2021/07/12 07:33:56;;;;;;;10.20;7.90;;;21.40;99.90;;;;;;4131826;28;20454;-73
2021/07/12 07:35:59;;;;;;;9.35;7.05;;;21.50;99.90;;;;;;4135838;28;20034;-72
2021/07/12 07:38:00;;;;;;;12.50;9.02;;;21.50;99.90;;;;;;4135918;28;20136;-73
2021/07/12 07:40:03;;;;;;;10.00;7.72;;;21.60;99.90;;;;;;4135947;28;20065;-72
2021/07/12 07:42:05;;;;;;;10.00;7.70;;;21.60;99.90;;;;;;4131659;28;20663;-73
2021/07/12 07:44:06;;;;;;;7.32;6.28;;;21.60;99.90;;;;;;4135041;28;20035;-73
2021/07/12 07:46:07;;;;;;;9.93;6.90;;;21.70;99.90;;;;;;4135867;28;20037;-72
2021/07/12 07:48:08;;;;;;;9.07;6.30;;;21.70;99.90;;;;;;4134337;28;20407;-73
2021/07/12 07:50:10;;;;;;;10.15;7.78;;;21.70;99.90;;;;;;4134255;28;20070;-72
2021/07/12 07:52:11;;;;;;;9.52;7.28;;;21.80;99.90;;;;;;4133412;28;20046;-72
2021/07/12 07:54:12;;;;;;;11.00;7.75;;;21.80;99.90;;;;;;4135367;28;20045;-73
2021/07/12 07:56:13;;;;;;;9.35;6.43;;;21.80;99.90;;;;;;4135218;28;20038;-72
2021/07/12 07:58:13;;;;;;;9.82;6.60;;;21.80;99.90;;;;;;4136691;28;20045;-72
2021/07/12 08:00:17;;;;;;;7.85;6.10;;;21.80;99.90;;;;;;4133964;28;20145;-72
2021/07/12 08:02:18;;;;;;;7.93;6.43;;;21.90;99.90;;;;;;4137004;28;20057;-73
2021/07/12 08:04:18;;;;;;;7.85;6.50;;;21.90;99.90;;;;;;4133112;28;20049;-72
2021/07/12 08:06:19;;;;;;;7.38;5.80;;;21.90;99.90;;;;;;4136664;28;20034;-72
2021/07/12 08:08:19;;;;;;;7.00;5.70;;;21.90;99.90;;;;;;4136350;28;20061;-72
2021/07/12 08:10:20;;;;;;;8.20;6.45;;;22.00;99.90;;;;;;4134830;28;20038;-72
2021/07/12 08:12:21;;;;;;;6.30;5.30;;;22.00;99.90;;;;;;4136816;28;20045;-72
2021/07/12 08:14:21;;;;;;;6.20;4.70;;;22.00;99.90;;;;;;4134649;28;20030;-72
2021/07/12 08:16:22;;;;;;;9.82;5.63;;;22.10;99.90;;;;;;4136685;28;20084;-72
2021/07/12 08:18:22;;;;;;;7.97;5.22;;;22.10;99.90;;;;;;4133880;28;20037;-72
2021/07/12 08:20:23;;;;;;;6.90;4.80;;;22.20;99.90;;;;;;4119003;28;20054;-72
2021/07/12 08:22:24;;;;;;;6.38;4.53;;;22.20;99.90;;;;;;4136881;28;20030;-72
2021/07/12 08:24:25;;;;;;;4.95;4.43;;;22.30;99.90;;;;;;4134394;28;20038;-72
2021/07/12 08:26:25;;;;;;;7.30;5.20;;;22.30;99.90;;;;;;4133527;28;20542;-72
2021/07/12 08:28:26;;;;;;;7.05;5.35;;;22.40;99.90;;;;;;4135637;28;20046;-72
2021/07/12 08:30:27;;;;;;;6.45;4.88;;;22.40;99.90;;;;;;4136704;28;20061;-73
2021/07/12 08:32:27;;;;;;;6.32;4.20;;;22.50;99.90;;;;;;4135725;28;20037;-72
2021/07/12 08:34:28;;;;;;;5.50;4.32;;;22.50;99.90;;;;;;4135374;28;20034;-73
2021/07/12 08:36:29;;;;;;;6.72;4.03;;;22.60;99.90;;;;;;4135208;28;20038;-73
2021/07/12 08:38:29;;;;;;;5.40;3.80;;;22.60;99.90;;;;;;4136953;28;20030;-73
2021/07/12 08:40:30;;;;;;;4.82;3.72;;;22.70;99.90;;;;;;4137253;28;20034;-72
2021/07/12 08:42:32;;;;;;;4.60;3.72;;;22.70;99.90;;;;;;4131006;28;20058;-73
2021/07/12 08:44:32;;;;;;;4.85;4.13;;;22.80;99.90;;;;;;4135362;28;20221;-73
2021/07/12 08:46:34;;;;;;;4.75;3.78;;;22.80;99.90;;;;;;4131255;28;20030;-73
2021/07/12 08:48:35;;;;;;;8.50;4.20;;;22.90;99.90;;;;;;4133546;28;20029;-73
2021/07/12 08:50:36;;;;;;;4.47;3.72;;;23.00;99.90;;;;;;4132182;28;20765;-74
2021/07/12 08:52:36;;;;;;;5.03;4.00;;;23.00;99.90;;;;;;4132316;28;20037;-75
2021/07/12 08:54:38;;;;;;;4.85;3.63;;;23.10;99.90;;;;;;4133503;28;20561;-74
2021/07/12 08:56:39;;;;;;;3.88;3.47;;;23.20;99.90;;;;;;4135228;28;20038;-75
2021/07/12 08:58:40;;;;;;;6.53;4.07;;;23.30;99.90;;;;;;4131645;28;20534;-75
2021/07/12 09:00:50;;;;;;;5.97;3.58;;;23.40;99.90;;;;;;4134930;28;20042;-74
2021/07/12 09:02:51;;;;;;;3.95;3.08;;;23.40;99.90;;;;;;4134208;28;20046;-74
2021/07/12 09:04:53;;;;;;;7.13;2.60;;;23.50;99.90;;;;;;4139192;28;20046;-75
2021/07/12 09:07:02;;;;;;;4.00;2.88;;;23.60;99.90;;;;;;4131734;28;20046;-75
2021/07/12 09:09:05;;;;;;;4.25;3.20;;;23.60;99.90;;;;;;4134798;28;20045;-75
2021/07/12 09:11:14;;;;;;;4.65;2.80;;;23.80;99.90;;;;;;4131215;28;20038;-76
2021/07/12 09:13:15;;;;;;;5.82;3.17;;;23.90;99.90;;;;;;4135359;28;20037;-75
2021/07/12 09:15:16;;;;;;;5.95;3.60;;;23.90;99.90;;;;;;4137088;28;20519;-75
2021/07/12 09:17:32;;;;;;;5.23;3.60;;;24.00;99.90;;;;;;4135101;28;20560;-76
2021/07/12 09:19:35;;;;;;;5.20;3.53;;;24.10;99.90;;;;;;4131444;28;20030;-74
2021/07/12 09:21:53;;;;;;;6.82;4.60;;;24.30;99.90;;;;;;4134380;28;20100;-76
2021/07/12 09:24:14;;;;;;;7.93;5.03;;;24.40;99.90;;;;;;4134677;28;20042;-76
2021/07/12 09:26:22;;;;;;;8.48;4.78;;;24.50;99.90;;;;;;4135251;28;20177;-76
2021/07/12 09:28:22;;;;;;;10.52;5.82;;;24.60;99.90;;;;;;4136414;28;20604;-75
2021/07/12 09:30:23;;;;;;;10.43;5.82;;;24.60;99.90;;;;;;4134254;28;20034;-75
2021/07/12 09:32:26;;;;;;;11.57;6.72;;;24.70;99.90;;;;;;4134188;28;20029;-76
2021/07/12 09:34:27;;;;;;;8.73;5.63;;;24.70;99.90;;;;;;4136007;28;20041;-75
2021/07/12 09:36:31;;;;;;;10.15;5.07;;;24.70;99.90;;;;;;4135682;28;20030;-75
2021/07/12 09:38:31;;;;;;;5.90;3.80;;;24.90;99.90;;;;;;4126981;28;20034;-76
2021/07/12 09:40:32;;;;;;;5.00;3.67;;;25.00;99.90;;;;;;4137728;28;20570;-75
2021/07/12 09:42:33;;;;;;;7.28;4.18;;;25.10;99.90;;;;;;4137476;28;20034;-75
2021/07/12 09:44:37;;;;;;;6.30;2.90;;;25.20;99.90;;;;;;4137947;28;20442;-75
2021/07/12 09:46:38;;;;;;;5.63;3.33;;;25.20;99.90;;;;;;4118095;28;20037;-76
2021/07/12 09:48:40;;;;;;;7.35;3.20;;;25.30;99.90;;;;;;4134981;28;20486;-76
2021/07/12 09:50:50;;;;;;;4.75;3.15;;;25.40;99.90;;;;;;4134859;28;20121;-76
2021/07/12 09:52:53;;;;;;;4.80;3.05;;;25.40;99.90;;;;;;4127843;28;20100;-76
2021/07/12 09:54:54;;;;;;;5.90;3.00;;;25.40;99.90;;;;;;4136327;28;20091;-75
2021/07/12 09:56:56;;;;;;;3.35;2.50;;;25.40;99.90;;;;;;4126927;28;20045;-75
2021/07/12 09:58:57;;;;;;;4.00;2.75;;;25.50;99.90;;;;;;4137440;28;20045;-76
2021/07/12 10:01:04;;;;;;;4.18;2.90;;;25.50;99.90;;;;;;4133804;28;20474;-75
2021/07/12 10:03:05;;;;;;;3.40;2.60;;;25.60;99.90;;;;;;4132034;28;20045;-75
2021/07/12 10:05:08;;;;;;;3.70;2.63;;;25.60;99.90;;;;;;4130329;28;20470;-75
2021/07/12 10:07:09;;;;;;;3.25;2.25;;;25.60;99.90;;;;;;4133103;28;20061;-75
2021/07/12 10:09:09;;;;;;;3.45;2.25;;;25.60;99.90;;;;;;4126451;28;20042;-76
2021/07/12 10:11:10;;;;;;;3.38;2.20;;;25.70;99.90;;;;;;4131702;28;20064;-75
2021/07/12 10:13:11;;;;;;;5.30;2.33;;;25.70;99.90;;;;;;4136224;28;20038;-75
2021/07/12 10:15:14;;;;;;;5.15;3.20;;;25.70;99.90;;;;;;4129670;28;20042;-75
2021/07/12 10:17:15;;;;;;;4.03;2.70;;;25.70;99.90;;;;;;4128104;28;20073;-75
2021/07/12 10:19:16;;;;;;;4.82;2.60;;;25.80;99.90;;;;;;4115786;28;20160;-75
2021/07/12 10:21:18;;;;;;;3.13;2.10;;;25.80;99.90;;;;;;4131572;28;20095;-76
2021/07/12 10:23:19;;;;;;;3.95;2.30;;;25.90;99.90;;;;;;4133764;28;20049;-75
2021/07/12 10:25:20;;;;;;;5.30;2.40;;;25.90;99.90;;;;;;4131593;28;20109;-75
2021/07/12 10:27:26;;;;;;;4.03;2.38;;;26.00;99.90;;;;;;4122768;28;20039;-75
2021/07/12 10:29:37;;;;;;;2.45;2.15;;;26.00;99.90;;;;;;4134938;28;20288;-75
2021/07/12 10:31:57;;;;;;;3.00;2.17;;;26.00;99.90;;;;;;4133331;28;20034;-75
2021/07/12 10:33:57;;;;;;;2.75;2.00;;;25.90;99.90;;;;;;4133355;28;20405;-75
2021/07/12 10:35:58;;;;;;;2.28;1.80;;;26.00;99.90;;;;;;4128387;28;20046;-75
2021/07/12 10:37:59;;;;;;;4.10;2.45;;;26.00;99.90;;;;;;4122579;28;20065;-77
2021/07/12 10:40:05;;;;;;;3.90;2.58;;;26.10;99.90;;;;;;4134650;28;20033;-75